Terminal Aerodrome Forecast
Issued by NWS

Home | Current Version | Previous Version | Text Only | Print | Product List | Glossary On
Versions: 1 2 3 4 5 6 7 8 9 10 11 12 13 14 15 16 17 18 19 20 21 22 23 24 25 26 27 28 29 30 31 32 33 34 35 36 37 38 39 40 41 42 43 44 45 46 47 48 49 50
000
FTUS44 KLUB 221120
TAFPVW
TAF
KPVW 221120Z 2212/2312 18011KT P6SM SKC WS007/21045KT
     FM221500 20011KT P6SM FEW200
     FM221600 21017KT P6SM SCT080
     FM230100 18011KT P6SM FEW080
     FM230500 01023G33KT P6SM SCT025=

USA.gov is the U.S. government's official web portal to all federal, state and local government web resources and services.